createdAt,value
2023-01-08T00:02:11.708Z,67.96
2023-01-08T00:04:38.420Z,67.49
2023-01-08T00:07:05.188Z,66.77
2023-01-08T00:09:31.874Z,66.99
2023-01-08T00:11:58.682Z,67.30
2023-01-08T00:14:25.359Z,66.91
2023-01-08T00:16:52.207Z,67.83
2023-01-08T00:19:19.135Z,67.55
2023-01-08T00:21:45.912Z,68.08
2023-01-08T00:24:12.587Z,68.44
2023-01-08T00:26:39.598Z,69.28
2023-01-08T00:29:06.329Z,67.54
2023-01-08T00:31:33.000Z,67.53
2023-01-08T00:33:59.700Z,67.98
2023-01-08T00:36:29.690Z,68.03
2023-01-08T00:38:56.375Z,66.71
2023-01-08T00:41:23.207Z,66.70
2023-01-08T00:43:49.916Z,68.30
2023-01-08T00:46:16.627Z,68.17
2023-01-08T00:48:43.389Z,67.74
2023-01-08T00:51:10.272Z,68.15
2023-01-08T00:53:38.321Z,68.25
2023-01-08T00:56:08.404Z,68.13
2023-01-08T00:58:35.202Z,67.89
2023-01-08T01:01:02.287Z,68.04
2023-01-08T01:03:29.022Z,67.78
2023-01-08T01:06:03.236Z,68.70
2023-01-08T01:08:30.181Z,68.74
2023-01-08T01:10:56.990Z,69.08
2023-01-08T01:13:23.719Z,68.43
2023-01-08T01:16:03.183Z,68.58
2023-01-08T01:18:31.218Z,68.38
2023-01-08T01:20:57.956Z,67.63
2023-01-08T01:23:24.639Z,68.33
2023-01-08T01:25:51.409Z,68.41
2023-01-08T01:28:18.238Z,68.82
2023-01-08T01:30:45.033Z,68.77
2023-01-08T01:33:11.755Z,68.95
2023-01-08T01:35:38.431Z,68.45
2023-01-08T01:38:05.117Z,68.47
2023-01-08T01:40:31.820Z,68.86
2023-01-08T01:42:58.467Z,69.11
2023-01-08T01:45:27.963Z,69.52
2023-01-08T01:48:00.640Z,69.72
2023-01-08T01:50:40.443Z,69.86
2023-01-08T01:53:13.464Z,70.77
2023-01-08T01:55:43.467Z,70.32
2023-01-08T01:58:20.204Z,69.92
2023-01-08T02:00:47.174Z,69.89
2023-01-08T02:03:15.833Z,69.91
2023-01-08T02:06:14.910Z,69.98
2023-01-08T02:09:04.677Z,70.01
2023-01-08T02:11:42.242Z,69.99
2023-01-08T02:14:32.882Z,70.73
2023-01-08T02:17:10.107Z,70.49
2023-01-08T02:19:42.795Z,70.36
2023-01-08T02:22:25.271Z,69.96
2023-01-08T02:25:10.091Z,70.15
2023-01-08T02:27:38.263Z,70.70
2023-01-08T02:30:05.969Z,70.66
2023-01-08T02:32:40.956Z,70.82
2023-01-08T02:35:08.573Z,70.84
2023-01-08T02:37:36.536Z,70.86
2023-01-08T02:40:06.822Z,70.62
2023-01-08T02:42:56.618Z,71.04
2023-01-08T02:45:38.510Z,70.58
2023-01-08T02:48:10.129Z,71.14
2023-01-08T02:50:41.349Z,70.76
2023-01-08T02:53:16.944Z,71.69
2023-01-08T02:55:48.605Z,70.94
2023-01-08T02:58:15.523Z,71.22
2023-01-08T03:00:43.278Z,71.19
2023-01-08T03:03:17.426Z,71.80
2023-01-08T03:05:47.427Z,72.63
2023-01-08T03:08:14.353Z,71.81
2023-01-08T03:10:42.517Z,72.61
2023-01-08T03:13:14.469Z,72.79
2023-01-08T03:15:47.478Z,72.37
2023-01-08T03:18:19.451Z,72.05
2023-01-08T03:20:46.308Z,71.90
2023-01-08T03:23:14.855Z,71.54
2023-01-08T03:25:43.832Z,71.46
2023-01-08T03:28:16.007Z,71.52
2023-01-08T03:30:43.431Z,71.68
2023-01-08T03:33:10.932Z,71.54
2023-01-08T03:35:38.751Z,71.20
2023-01-08T03:38:11.471Z,71.64
2023-01-08T03:40:43.523Z,71.65
2023-01-08T03:43:10.368Z,74.37
2023-01-08T03:45:39.023Z,73.33
2023-01-08T03:48:06.304Z,72.83
2023-01-08T03:50:33.046Z,72.48
2023-01-08T03:53:00.863Z,72.29
2023-01-08T03:55:27.773Z,72.50
2023-01-08T03:57:54.445Z,73.18
2023-01-08T04:00:21.216Z,73.14
2023-01-08T04:02:48.558Z,75.29
2023-01-08T04:05:15.269Z,74.46
2023-01-08T04:07:42.031Z,73.91
2023-01-08T04:10:08.821Z,74.72
2023-01-08T04:12:35.703Z,73.83
2023-01-08T04:15:02.452Z,73.97
2023-01-08T04:17:29.229Z,73.42
2023-01-08T04:19:55.967Z,73.77
2023-01-08T04:22:22.733Z,74.92
2023-01-08T04:24:49.438Z,74.54
2023-01-08T04:27:16.172Z,74.12
2023-01-08T04:29:42.877Z,74.03
2023-01-08T04:32:09.607Z,74.63
2023-01-08T04:34:36.288Z,73.94
2023-01-08T04:37:03.437Z,73.56
2023-01-08T04:39:30.097Z,73.53
2023-01-08T04:41:56.818Z,73.70
2023-01-08T04:44:23.539Z,73.67
2023-01-08T04:46:50.268Z,73.72
2023-01-08T04:49:17.074Z,73.59
2023-01-08T04:51:43.834Z,73.86
2023-01-08T04:54:10.528Z,74.50
2023-01-08T04:56:37.438Z,75.41
2023-01-08T04:59:04.215Z,75.33
2023-01-08T05:01:31.016Z,75.04
2023-01-08T05:03:59.800Z,77.01
2023-01-08T05:06:28.071Z,76.50
2023-01-08T05:08:54.909Z,76.13
2023-01-08T05:11:22.016Z,76.07
2023-01-08T05:13:49.759Z,75.69
2023-01-08T05:16:17.014Z,75.60
2023-01-08T05:18:45.205Z,75.69
2023-01-08T05:21:11.923Z,75.78
2023-01-08T05:23:38.611Z,76.34
2023-01-08T05:26:06.473Z,76.09
2023-01-08T05:28:33.482Z,76.17
2023-01-08T05:31:00.683Z,76.33
2023-01-08T05:33:27.733Z,76.25
2023-01-08T05:35:54.465Z,76.42
2023-01-08T05:38:21.178Z,76.90
2023-01-08T05:40:47.899Z,76.64
2023-01-08T05:43:14.596Z,76.61
2023-01-08T05:45:41.500Z,77.22
2023-01-08T05:48:08.724Z,76.89
2023-01-08T05:50:36.093Z,77.06
2023-01-08T05:53:07.733Z,76.79
2023-01-08T05:55:34.817Z,77.37
2023-01-08T05:58:02.945Z,76.88
2023-01-08T06:00:30.133Z,76.75
2023-01-08T06:02:56.885Z,76.47
2023-01-08T06:05:23.607Z,76.25
2023-01-08T06:07:50.312Z,76.24
2023-01-08T06:10:17.073Z,75.82
2023-01-08T06:12:43.988Z,74.30
2023-01-08T06:15:12.103Z,73.99
2023-01-08T06:17:38.825Z,73.20
2023-01-08T06:20:06.249Z,74.60
2023-01-08T06:22:34.005Z,74.32
2023-01-08T06:25:01.218Z,73.96
2023-01-08T06:27:27.921Z,73.48
2023-01-08T06:29:54.664Z,72.01
2023-01-08T06:32:21.501Z,72.17
2023-01-08T06:34:48.201Z,71.58
2023-01-08T06:37:15.243Z,71.68
2023-01-08T06:39:41.927Z,71.97
2023-01-08T06:42:08.934Z,71.34
2023-01-08T06:44:35.744Z,72.08
2023-01-08T06:47:02.500Z,71.75
2023-01-08T06:49:29.232Z,70.96
2023-01-08T06:51:57.405Z,70.54
2023-01-08T06:54:24.101Z,70.47
2023-01-08T06:56:54.151Z,70.25
2023-01-08T06:59:21.507Z,69.20
2023-01-08T07:01:48.479Z,69.94
2023-01-08T07:04:15.264Z,71.25
2023-01-08T07:06:41.967Z,71.10
2023-01-08T07:09:12.249Z,71.45
2023-01-08T07:11:39.407Z,69.89
2023-01-08T07:14:06.123Z,70.54
2023-01-08T07:16:33.200Z,71.22
2023-01-08T07:19:01.125Z,70.91
2023-01-08T07:21:27.841Z,71.20
2023-01-08T07:23:54.603Z,71.88
2023-01-08T07:26:21.363Z,73.53
2023-01-08T07:28:48.092Z,74.69
2023-01-08T07:31:14.918Z,75.30
2023-01-08T07:33:41.685Z,75.93
2023-01-08T07:36:08.683Z,75.56
2023-01-08T07:38:35.647Z,75.59
2023-01-08T07:41:02.429Z,75.99
2023-01-08T07:43:30.226Z,76.54
2023-01-08T07:45:57.908Z,77.43
2023-01-08T07:48:24.647Z,77.74
2023-01-08T07:50:51.375Z,77.18
2023-01-08T07:53:18.228Z,79.23
2023-01-08T07:55:45.001Z,79.42
2023-01-08T07:58:13.073Z,78.85
2023-01-08T08:00:40.240Z,79.42
2023-01-08T08:03:09.432Z,79.94
2023-01-08T08:05:36.158Z,80.30
2023-01-08T08:08:02.910Z,79.81
2023-01-08T08:10:29.669Z,80.59
2023-01-08T08:12:56.443Z,80.85
2023-01-08T08:15:23.323Z,80.33
2023-01-08T08:17:50.129Z,79.06
2023-01-08T08:20:17.019Z,80.09
2023-01-08T08:22:43.709Z,79.95
2023-01-08T08:25:10.701Z,79.41
2023-01-08T08:27:37.439Z,80.86
2023-01-08T08:30:05.168Z,81.02
2023-01-08T08:32:31.862Z,81.13
2023-01-08T08:34:58.587Z,81.51
2023-01-08T08:37:25.333Z,80.05
2023-01-08T08:39:52.399Z,81.86
2023-01-08T08:42:20.191Z,80.75
2023-01-08T08:44:47.070Z,79.95
2023-01-08T08:47:13.923Z,80.42
2023-01-08T08:49:41.762Z,80.08
2023-01-08T08:52:08.732Z,79.20
2023-01-08T08:54:35.514Z,78.51
2023-01-08T08:57:02.368Z,79.24
2023-01-08T08:59:29.145Z,79.98
2023-01-08T09:01:56.160Z,79.42
2023-01-08T09:04:23.032Z,79.09
2023-01-08T09:06:49.883Z,79.49
2023-01-08T09:09:16.865Z,79.86
2023-01-08T09:11:43.657Z,79.98
2023-01-08T09:14:10.403Z,80.26
2023-01-08T09:16:37.369Z,81.23
2023-01-08T09:19:04.256Z,81.17
2023-01-08T09:21:31.234Z,80.67
2023-01-08T09:23:58.094Z,81.47
2023-01-08T09:26:25.052Z,81.32
2023-01-08T09:28:51.905Z,79.99
2023-01-08T09:31:18.981Z,80.54
2023-01-08T09:33:49.684Z,81.10
2023-01-08T09:36:18.466Z,80.45
2023-01-08T09:38:45.629Z,80.66
2023-01-08T09:41:18.531Z,81.15
2023-01-08T09:43:47.753Z,81.34
2023-01-08T09:46:17.297Z,80.74
2023-01-08T09:48:44.966Z,81.01
2023-01-08T09:51:18.799Z,81.33
2023-01-08T09:53:46.203Z,80.17
2023-01-08T09:56:18.065Z,82.21
2023-01-08T09:58:54.532Z,81.04
2023-01-08T10:01:23.879Z,81.86
2023-01-08T10:04:07.421Z,81.77
2023-01-08T10:06:34.236Z,82.86
2023-01-08T10:09:00.965Z,82.98
2023-01-08T10:11:33.428Z,82.47
2023-01-08T10:14:00.113Z,83.10
2023-01-08T10:16:31.829Z,84.51
2023-01-08T10:18:59.034Z,83.74
2023-01-08T10:21:31.389Z,83.71
2023-01-08T10:23:58.287Z,84.33
2023-01-08T10:26:36.579Z,84.52
2023-01-08T10:29:07.633Z,85.37
2023-01-08T10:31:35.185Z,84.71
2023-01-08T10:34:09.803Z,85.12
2023-01-08T10:36:40.804Z,85.33
2023-01-08T10:39:07.752Z,85.72
2023-01-08T10:41:39.733Z,85.18
2023-01-08T10:44:07.897Z,85.44
2023-01-08T10:46:45.467Z,85.21
2023-01-08T10:49:25.314Z,84.87
2023-01-08T10:51:56.620Z,85.17
2023-01-08T10:54:38.518Z,85.32
2023-01-08T10:57:29.198Z,84.30
2023-01-08T10:59:56.611Z,84.43
2023-01-08T11:02:38.943Z,85.33
2023-01-08T11:05:09.346Z,84.45
2023-01-08T11:07:36.504Z,85.11
2023-01-08T11:10:05.201Z,85.08
2023-01-08T11:12:45.437Z,84.62
2023-01-08T11:15:18.124Z,84.50
2023-01-08T11:17:45.488Z,84.59
2023-01-08T11:20:29.677Z,83.64
2023-01-08T11:23:21.825Z,85.27
2023-01-08T11:25:52.915Z,84.47
2023-01-08T11:28:26.572Z,83.15
2023-01-08T11:31:59.910Z,83.47
2023-01-08T11:34:53.788Z,83.78
2023-01-08T11:37:29.089Z,82.89
2023-01-08T11:39:57.473Z,82.75
2023-01-08T11:43:03.763Z,82.74
2023-01-08T11:45:58.583Z,82.58
2023-01-08T11:48:35.329Z,83.59
2023-01-08T11:51:34.843Z,83.76
2023-01-08T11:54:23.749Z,82.97
2023-01-08T11:57:25.515Z,82.55
2023-01-08T12:00:14.174Z,82.75
2023-01-08T12:02:56.329Z,82.50
2023-01-08T12:05:39.377Z,83.21
2023-01-08T12:08:08.338Z,81.71
2023-01-08T12:10:49.755Z,81.99
2023-01-08T12:13:32.771Z,82.22
2023-01-08T12:16:28.377Z,81.98
2023-01-08T12:19:33.041Z,82.29
2023-01-08T12:22:28.440Z,81.81
2023-01-08T12:25:16.862Z,82.27
2023-01-08T12:27:57.263Z,81.68
2023-01-08T12:30:36.816Z,80.71
2023-01-08T12:33:26.007Z,81.34
2023-01-08T12:35:56.261Z,82.33
2023-01-08T12:38:29.188Z,81.96
2023-01-08T12:40:59.266Z,81.54
2023-01-08T12:43:32.965Z,81.66
2023-01-08T12:46:01.862Z,82.56
2023-01-08T12:48:31.414Z,82.13
2023-01-08T12:51:01.466Z,81.45
2023-01-08T12:53:37.960Z,81.23
2023-01-08T12:56:16.190Z,81.50
2023-01-08T12:58:51.325Z,81.84
2023-01-08T13:01:45.687Z,80.54
2023-01-08T13:04:12.774Z,81.37
2023-01-08T13:06:50.388Z,82.59
2023-01-08T13:09:23.726Z,82.27
2023-01-08T13:11:56.499Z,82.49
2023-01-08T13:14:26.775Z,82.08
2023-01-08T13:17:17.485Z,82.67
2023-01-08T13:19:51.914Z,82.53
2023-01-08T13:22:31.114Z,81.69
2023-01-08T13:25:28.997Z,81.47
2023-01-08T13:27:55.935Z,81.58
2023-01-08T13:30:50.186Z,82.65
2023-01-08T13:33:48.005Z,82.95
2023-01-08T13:36:16.469Z,83.62
2023-01-08T13:38:44.570Z,83.10
2023-01-08T13:41:29.801Z,83.70
2023-01-08T13:44:06.741Z,83.26
2023-01-08T13:46:37.242Z,82.93
2023-01-08T13:49:05.815Z,83.28
2023-01-08T13:51:43.758Z,83.51
2023-01-08T13:54:13.565Z,83.36
2023-01-08T13:56:41.165Z,82.99
2023-01-08T13:59:20.969Z,82.89
2023-01-08T14:01:55.126Z,83.94
2023-01-08T14:04:23.628Z,83.01
2023-01-08T14:06:50.789Z,84.60
2023-01-08T14:09:23.476Z,84.33
2023-01-08T14:11:53.466Z,84.06
2023-01-08T14:14:22.106Z,82.66
2023-01-08T14:16:49.594Z,81.88
2023-01-08T14:19:22.271Z,82.32
2023-01-08T14:21:54.147Z,82.38
2023-01-08T14:24:22.812Z,82.01
2023-01-08T14:26:55.343Z,83.23
2023-01-08T14:29:23.893Z,82.92
2023-01-08T14:31:53.542Z,84.22
2023-01-08T14:34:31.492Z,84.71
2023-01-08T14:36:58.534Z,82.92
2023-01-08T14:39:31.487Z,83.48
2023-01-08T14:42:20.767Z,82.89
2023-01-08T14:44:54.580Z,83.17
2023-01-08T14:47:21.717Z,83.66
2023-01-08T14:49:52.070Z,83.38
2023-01-08T14:52:20.995Z,82.84
2023-01-08T14:54:49.875Z,84.10
2023-01-08T14:57:17.868Z,84.45
2023-01-08T14:59:52.008Z,83.31
2023-01-08T15:02:27.266Z,83.27
2023-01-08T15:05:03.159Z,83.05
2023-01-08T15:07:30.193Z,82.29
2023-01-08T15:09:59.219Z,82.26
2023-01-08T15:12:28.500Z,82.61
2023-01-08T15:14:55.403Z,82.96
2023-01-08T15:17:24.164Z,82.72
2023-01-08T15:19:56.456Z,83.55
2023-01-08T15:22:25.451Z,84.68
2023-01-08T15:25:03.989Z,84.36
2023-01-08T15:27:31.776Z,82.97
2023-01-08T15:30:03.852Z,83.17
2023-01-08T15:32:37.400Z,83.28
2023-01-08T15:35:15.613Z,83.37
2023-01-08T15:37:42.726Z,83.65
2023-01-08T15:40:11.320Z,83.10
2023-01-08T15:42:56.834Z,82.52
2023-01-08T15:45:28.605Z,83.06
2023-01-08T15:47:56.141Z,81.95
2023-01-08T15:50:24.178Z,83.02
2023-01-08T15:52:50.911Z,84.18
2023-01-08T15:55:21.892Z,83.59
2023-01-08T15:57:49.327Z,82.78
2023-01-08T16:00:17.776Z,82.73
2023-01-08T16:02:47.270Z,82.18
2023-01-08T16:05:15.410Z,82.56
2023-01-08T16:07:42.230Z,82.44
2023-01-08T16:10:09.549Z,83.50
2023-01-08T16:12:36.578Z,83.63
2023-01-08T16:15:03.922Z,83.98
2023-01-08T16:17:30.954Z,84.13
2023-01-08T16:19:58.052Z,83.83
2023-01-08T16:22:25.061Z,84.46
2023-01-08T16:24:53.030Z,83.36
2023-01-08T16:27:19.802Z,83.30
2023-01-08T16:29:46.710Z,83.56
2023-01-08T16:32:13.631Z,82.66
2023-01-08T16:34:40.516Z,82.59
2023-01-08T16:37:08.124Z,82.58
2023-01-08T16:39:35.100Z,82.14
2023-01-08T16:42:02.143Z,82.53
2023-01-08T16:44:29.049Z,81.23
2023-01-08T16:46:56.118Z,82.89
2023-01-08T16:49:23.372Z,82.97
2023-01-08T16:51:50.484Z,82.58
2023-01-08T16:54:17.443Z,82.17
2023-01-08T16:56:44.915Z,82.91
2023-01-08T16:59:22.402Z,82.67
2023-01-08T17:01:49.991Z,82.17
2023-01-08T17:04:16.928Z,80.75
2023-01-08T17:06:44.841Z,80.98
2023-01-08T17:09:11.974Z,80.63
2023-01-08T17:11:39.076Z,79.70
2023-01-08T17:14:06.005Z,80.70
2023-01-08T17:16:33.029Z,80.95
2023-01-08T17:19:00.166Z,80.54
2023-01-08T17:21:26.958Z,81.13
2023-01-08T17:23:53.837Z,80.56
2023-01-08T17:26:20.693Z,81.76
2023-01-08T17:28:47.566Z,80.47
2023-01-08T17:31:18.545Z,80.37
2023-01-08T17:33:50.187Z,80.28
2023-01-08T17:36:22.761Z,80.34
2023-01-08T17:38:53.617Z,80.70
2023-01-08T17:41:41.186Z,81.00
2023-01-08T17:44:09.371Z,80.46
2023-01-08T17:46:38.080Z,80.37
2023-01-08T17:49:05.548Z,80.33
2023-01-08T17:51:33.611Z,80.54
2023-01-08T17:54:01.141Z,80.93
2023-01-08T17:56:28.139Z,80.36
2023-01-08T17:58:55.036Z,80.90
2023-01-08T18:01:22.244Z,83.31
2023-01-08T18:03:49.728Z,82.34
2023-01-08T18:06:16.689Z,80.38
2023-01-08T18:08:43.535Z,79.57
2023-01-08T18:11:10.609Z,79.87
2023-01-08T18:13:37.959Z,80.77
2023-01-08T18:16:07.517Z,80.67
2023-01-08T18:18:35.322Z,80.80
2023-01-08T18:21:02.271Z,79.72
2023-01-08T18:23:29.327Z,79.21
2023-01-08T18:25:56.466Z,80.45
2023-01-08T18:28:23.496Z,80.58
2023-01-08T18:30:50.339Z,80.00
2023-01-08T18:33:17.157Z,80.65
2023-01-08T18:35:44.114Z,80.50
2023-01-08T18:38:15.807Z,81.01
2023-01-08T18:40:43.481Z,79.94
2023-01-08T18:43:10.759Z,80.33
2023-01-08T18:45:38.944Z,80.80
2023-01-08T18:48:07.013Z,80.31
2023-01-08T18:50:34.075Z,80.00
2023-01-08T18:53:03.894Z,80.25
2023-01-08T18:55:31.125Z,80.09
2023-01-08T18:57:58.165Z,80.13
2023-01-08T19:00:26.897Z,79.88
2023-01-08T19:02:57.259Z,79.98
2023-01-08T19:05:24.470Z,79.97
2023-01-08T19:07:51.338Z,79.63
2023-01-08T19:10:18.482Z,79.95
2023-01-08T19:12:45.293Z,79.32
2023-01-08T19:15:12.337Z,79.89
2023-01-08T19:17:39.559Z,79.98
2023-01-08T19:20:06.841Z,79.75
2023-01-08T19:22:33.781Z,80.91
2023-01-08T19:25:00.503Z,81.18
2023-01-08T19:27:27.392Z,80.43
2023-01-08T19:29:54.204Z,80.86
2023-01-08T19:32:21.105Z,80.64
2023-01-08T19:34:48.476Z,80.53
2023-01-08T19:37:15.348Z,80.05
2023-01-08T19:39:42.142Z,79.86
2023-01-08T19:42:29.176Z,80.08
2023-01-08T19:44:56.674Z,80.10
2023-01-08T19:47:24.631Z,79.95
2023-01-08T19:49:51.315Z,79.66
2023-01-08T19:52:18.385Z,79.51
2023-01-08T19:54:45.995Z,80.51
2023-01-08T19:57:13.600Z,80.06
2023-01-08T19:59:40.631Z,80.23
2023-01-08T20:02:09.341Z,80.41
2023-01-08T20:04:39.562Z,81.38
2023-01-08T20:07:06.441Z,80.86
2023-01-08T20:09:35.045Z,80.13
2023-01-08T20:12:02.758Z,80.22
2023-01-08T20:14:30.085Z,80.04
2023-01-08T20:16:57.181Z,79.81
2023-01-08T20:19:24.341Z,80.00
2023-01-08T20:21:51.162Z,80.80
2023-01-08T20:24:17.957Z,80.31
2023-01-08T20:26:46.100Z,80.55
2023-01-08T20:29:15.037Z,81.13
2023-01-08T20:31:42.247Z,80.34
2023-01-08T20:34:14.443Z,80.64
2023-01-08T20:36:41.878Z,80.53
2023-01-08T20:39:12.724Z,81.07
2023-01-08T20:41:43.506Z,80.89
2023-01-08T20:44:16.872Z,81.11
2023-01-08T20:46:43.660Z,81.00
2023-01-08T20:49:13.554Z,81.44
2023-01-08T20:51:54.334Z,82.22
2023-01-08T20:54:24.992Z,80.95
2023-01-08T20:56:51.812Z,82.03
2023-01-08T20:59:18.633Z,82.09
2023-01-08T21:01:45.430Z,81.20
2023-01-08T21:04:12.490Z,81.91
2023-01-08T21:06:39.523Z,80.65
2023-01-08T21:09:09.196Z,79.94
2023-01-08T21:11:39.350Z,81.16
2023-01-08T21:14:08.136Z,81.81
2023-01-08T21:16:35.958Z,79.17
2023-01-08T21:19:03.876Z,79.43
2023-01-08T21:21:33.754Z,79.79
2023-01-08T21:24:04.534Z,79.56
2023-01-08T21:26:33.542Z,79.18
2023-01-08T21:29:03.081Z,79.85
2023-01-08T21:31:30.286Z,79.47
2023-01-08T21:33:58.665Z,78.89
2023-01-08T21:36:27.326Z,78.29
2023-01-08T21:38:55.623Z,79.49
2023-01-08T21:41:42.663Z,80.01
2023-01-08T21:44:39.679Z,79.65
2023-01-08T21:47:09.581Z,80.66
2023-01-08T21:49:36.660Z,77.86
2023-01-08T21:52:22.705Z,78.39
2023-01-08T21:54:49.930Z,79.87
2023-01-08T21:57:16.944Z,79.90
2023-01-08T21:59:44.083Z,78.99
2023-01-08T22:02:18.510Z,79.54
2023-01-08T22:04:45.837Z,78.00
2023-01-08T22:07:12.907Z,77.72
2023-01-08T22:09:40.773Z,77.88
2023-01-08T22:12:08.210Z,78.29
2023-01-08T22:14:38.215Z,78.65
2023-01-08T22:17:08.480Z,77.95
2023-01-08T22:19:37.602Z,77.94
2023-01-08T22:22:04.718Z,77.94
2023-01-08T22:24:31.500Z,77.99
2023-01-08T22:26:58.260Z,77.72
2023-01-08T22:29:25.188Z,77.47
2023-01-08T22:31:51.960Z,77.53
2023-01-08T22:34:19.061Z,78.38
2023-01-08T22:36:47.135Z,78.45
2023-01-08T22:39:13.854Z,77.69
2023-01-08T22:41:40.564Z,77.99
2023-01-08T22:44:07.375Z,78.64
2023-01-08T22:46:34.116Z,78.36
2023-01-08T22:49:01.009Z,78.30
2023-01-08T22:51:27.948Z,77.23
2023-01-08T22:53:59.226Z,78.18
2023-01-08T22:56:26.795Z,78.25
2023-01-08T22:58:54.309Z,78.83
2023-01-08T23:01:24.041Z,79.11
2023-01-08T23:03:51.951Z,78.16
2023-01-08T23:06:19.566Z,77.38
2023-01-08T23:08:47.109Z,77.94
2023-01-08T23:11:16.233Z,78.51
2023-01-08T23:13:43.060Z,78.29
2023-01-08T23:16:11.623Z,78.03
2023-01-08T23:18:38.950Z,78.53
2023-01-08T23:21:13.973Z,78.31
2023-01-08T23:23:40.813Z,77.81
2023-01-08T23:26:17.870Z,77.61
2023-01-08T23:28:45.318Z,77.91
2023-01-08T23:31:14.153Z,78.25
2023-01-08T23:33:41.186Z,77.54
2023-01-08T23:36:08.474Z,77.85
2023-01-08T23:38:35.184Z,77.56
2023-01-08T23:41:06.367Z,77.21
2023-01-08T23:43:33.350Z,78.94
2023-01-08T23:46:04.552Z,79.04
2023-01-08T23:48:31.399Z,79.13
2023-01-08T23:50:58.426Z,77.65
2023-01-08T23:53:25.190Z,77.91
2023-01-08T23:55:51.896Z,78.77
2023-01-08T23:58:18.569Z,78.94
